sensor_id;sensor_type;location;lat;lon;timestamp;temperature;humidity
58469;DHT22;44257;44.804;10.220;2023-06-26T00:02:23;21.70;99.90
58469;DHT22;44257;44.804;10.220;2023-06-26T00:04:49;21.70;99.90
58469;DHT22;44257;44.804;10.220;2023-06-26T00:07:19;21.70;99.90
58469;DHT22;44257;44.804;10.220;2023-06-26T00:09:45;21.70;99.90
58469;DHT22;44257;44.804;10.220;2023-06-26T00:12:11;21.70;99.90
58469;DHT22;44257;44.804;10.220;2023-06-26T00:14:37;21.70;99.90
58469;DHT22;44257;44.804;10.220;2023-06-26T00:17:03;21.60;99.90
58469;DHT22;44257;44.804;10.220;2023-06-26T00:19:29;21.60;99.90
58469;DHT22;44257;44.804;10.220;2023-06-26T00:21:55;21.60;99.90
58469;DHT22;44257;44.804;10.220;2023-06-26T00:24:21;21.50;99.90
58469;DHT22;44257;44.804;10.220;2023-06-26T00:26:47;21.50;99.90
58469;DHT22;44257;44.804;10.220;2023-06-26T00:29:13;21.50;99.90
58469;DHT22;44257;44.804;10.220;2023-06-26T00:31:39;21.50;99.90
58469;DHT22;44257;44.804;10.220;2023-06-26T00:34:06;21.50;99.90
58469;DHT22;44257;44.804;10.220;2023-06-26T00:36:32;21.40;99.90
58469;DHT22;44257;44.804;10.220;2023-06-26T00:38:59;21.40;99.90
58469;DHT22;44257;44.804;10.220;2023-06-26T00:41:26;21.40;99.90
58469;DHT22;44257;44.804;10.220;2023-06-26T00:43:52;21.30;99.90
58469;DHT22;44257;44.804;10.220;2023-06-26T00:46:18;21.30;99.90
58469;DHT22;44257;44.804;10.220;2023-06-26T00:48:46;21.20;99.90
58469;DHT22;44257;44.804;10.220;2023-06-26T00:51:14;21.20;99.90
58469;DHT22;44257;44.804;10.220;2023-06-26T00:53:39;21.20;99.90
58469;DHT22;44257;44.804;10.220;2023-06-26T00:56:06;21.20;99.90
58469;DHT22;44257;44.804;10.220;2023-06-26T00:58:32;21.20;99.90
58469;DHT22;44257;44.804;10.220;2023-06-26T01:00:58;21.10;99.90
58469;DHT22;44257;44.804;10.220;2023-06-26T01:03:25;21.10;99.90
58469;DHT22;44257;44.804;10.220;2023-06-26T01:05:56;21.10;99.90
58469;DHT22;44257;44.804;10.220;2023-06-26T01:08:23;21.10;99.90
58469;DHT22;44257;44.804;10.220;2023-06-26T01:10:51;21.00;99.90
58469;DHT22;44257;44.804;10.220;2023-06-26T01:13:17;21.00;99.90
58469;DHT22;44257;44.804;10.220;2023-06-26T01:15:43;20.90;99.90
58469;DHT22;44257;44.804;10.220;2023-06-26T01:18:09;20.90;99.90
58469;DHT22;44257;44.804;10.220;2023-06-26T01:20:39;20.90;99.90
58469;DHT22;44257;44.804;10.220;2023-06-26T01:26:06;20.90;99.90
58469;DHT22;44257;44.804;10.220;2023-06-26T01:28:43;20.80;99.90
58469;DHT22;44257;44.804;10.220;2023-06-26T01:31:14;20.90;99.90
58469;DHT22;44257;44.804;10.220;2023-06-26T01:33:41;20.80;99.90
58469;DHT22;44257;44.804;10.220;2023-06-26T01:36:07;20.80;99.90
58469;DHT22;44257;44.804;10.220;2023-06-26T01:38:35;20.80;99.90
58469;DHT22;44257;44.804;10.220;2023-06-26T01:41:02;20.70;99.90
58469;DHT22;44257;44.804;10.220;2023-06-26T01:46:11;20.70;99.90
58469;DHT22;44257;44.804;10.220;2023-06-26T01:49:01;20.60;99.90
58469;DHT22;44257;44.804;10.220;2023-06-26T01:51:41;20.60;99.90
58469;DHT22;44257;44.804;10.220;2023-06-26T01:54:14;20.50;99.90
58469;DHT22;44257;44.804;10.220;2023-06-26T01:56:43;20.50;99.90
58469;DHT22;44257;44.804;10.220;2023-06-26T01:59:11;20.40;99.90
58469;DHT22;44257;44.804;10.220;2023-06-26T02:01:39;20.40;99.90
58469;DHT22;44257;44.804;10.220;2023-06-26T02:04:05;20.40;99.90
58469;DHT22;44257;44.804;10.220;2023-06-26T02:06:31;20.30;99.90
58469;DHT22;44257;44.804;10.220;2023-06-26T02:08:58;20.30;99.90
58469;DHT22;44257;44.804;10.220;2023-06-26T02:11:24;20.30;99.90
58469;DHT22;44257;44.804;10.220;2023-06-26T02:13:50;20.20;99.90
58469;DHT22;44257;44.804;10.220;2023-06-26T02:16:16;20.20;99.90
58469;DHT22;44257;44.804;10.220;2023-06-26T02:18:42;20.20;99.90
58469;DHT22;44257;44.804;10.220;2023-06-26T02:21:10;20.20;99.90
58469;DHT22;44257;44.804;10.220;2023-06-26T02:23:36;20.20;99.90
58469;DHT22;44257;44.804;10.220;2023-06-26T02:26:04;20.20;99.90
58469;DHT22;44257;44.804;10.220;2023-06-26T02:28:30;20.20;99.90
58469;DHT22;44257;44.804;10.220;2023-06-26T02:30:56;20.30;99.90
58469;DHT22;44257;44.804;10.220;2023-06-26T02:33:24;20.30;99.90
58469;DHT22;44257;44.804;10.220;2023-06-26T02:35:49;20.30;99.90
58469;DHT22;44257;44.804;10.220;2023-06-26T02:38:16;20.20;99.90
58469;DHT22;44257;44.804;10.220;2023-06-26T02:40:42;20.20;99.90
58469;DHT22;44257;44.804;10.220;2023-06-26T02:43:07;20.10;99.90
58469;DHT22;44257;44.804;10.220;2023-06-26T02:45:34;20.10;99.90
58469;DHT22;44257;44.804;10.220;2023-06-26T02:48:00;20.10;99.90
58469;DHT22;44257;44.804;10.220;2023-06-26T02:50:26;20.10;99.90
58469;DHT22;44257;44.804;10.220;2023-06-26T02:53:18;20.00;99.90
58469;DHT22;44257;44.804;10.220;2023-06-26T02:55:45;20.00;99.90
58469;DHT22;44257;44.804;10.220;2023-06-26T02:58:14;19.90;99.90
58469;DHT22;44257;44.804;10.220;2023-06-26T03:00:39;19.90;99.90
58469;DHT22;44257;44.804;10.220;2023-06-26T03:03:12;19.90;99.90
58469;DHT22;44257;44.804;10.220;2023-06-26T03:05:38;19.90;99.90
58469;DHT22;44257;44.804;10.220;2023-06-26T03:08:05;19.90;99.90
58469;DHT22;44257;44.804;10.220;2023-06-26T03:10:31;20.00;99.90
58469;DHT22;44257;44.804;10.220;2023-06-26T03:12:57;19.90;99.90
58469;DHT22;44257;44.804;10.220;2023-06-26T03:15:23;19.90;99.90
58469;DHT22;44257;44.804;10.220;2023-06-26T03:17:49;19.80;99.90
58469;DHT22;44257;44.804;10.220;2023-06-26T03:20:21;19.80;99.90
58469;DHT22;44257;44.804;10.220;2023-06-26T03:22:57;19.80;99.90
58469;DHT22;44257;44.804;10.220;2023-06-26T03:25:23;19.90;99.90
58469;DHT22;44257;44.804;10.220;2023-06-26T03:27:56;19.90;99.90
58469;DHT22;44257;44.804;10.220;2023-06-26T03:30:22;20.00;99.90
58469;DHT22;44257;44.804;10.220;2023-06-26T03:32:50;20.00;99.90
58469;DHT22;44257;44.804;10.220;2023-06-26T03:35:17;20.00;99.90
58469;DHT22;44257;44.804;10.220;2023-06-26T03:37:43;19.90;99.90
58469;DHT22;44257;44.804;10.220;2023-06-26T03:40:09;19.80;99.90
58469;DHT22;44257;44.804;10.220;2023-06-26T03:42:36;19.80;99.90
58469;DHT22;44257;44.804;10.220;2023-06-26T03:45:03;19.90;99.90
58469;DHT22;44257;44.804;10.220;2023-06-26T03:47:29;19.90;99.90
58469;DHT22;44257;44.804;10.220;2023-06-26T03:49:55;19.90;99.90
58469;DHT22;44257;44.804;10.220;2023-06-26T03:52:21;19.90;99.90
58469;DHT22;44257;44.804;10.220;2023-06-26T03:54:47;19.90;99.90
58469;DHT22;44257;44.804;10.220;2023-06-26T03:57:16;19.90;99.90
58469;DHT22;44257;44.804;10.220;2023-06-26T03:59:41;19.90;99.90
58469;DHT22;44257;44.804;10.220;2023-06-26T04:02:07;19.90;99.90
58469;DHT22;44257;44.804;10.220;2023-06-26T04:04:33;19.80;99.90
58469;DHT22;44257;44.804;10.220;2023-06-26T04:06:59;19.80;99.90
58469;DHT22;44257;44.804;10.220;2023-06-26T04:09:25;19.90;99.90
58469;DHT22;44257;44.804;10.220;2023-06-26T04:11:51;19.90;99.90
58469;DHT22;44257;44.804;10.220;2023-06-26T04:14:17;19.90;99.90
58469;DHT22;44257;44.804;10.220;2023-06-26T04:16:43;19.90;99.90
58469;DHT22;44257;44.804;10.220;2023-06-26T04:19:10;20.00;99.90
58469;DHT22;44257;44.804;10.220;2023-06-26T04:21:36;20.00;99.90
58469;DHT22;44257;44.804;10.220;2023-06-26T04:24:02;20.00;99.90
58469;DHT22;44257;44.804;10.220;2023-06-26T04:26:28;20.10;99.90
58469;DHT22;44257;44.804;10.220;2023-06-26T04:28:54;20.20;99.90
58469;DHT22;44257;44.804;10.220;2023-06-26T04:31:20;20.20;99.90
58469;DHT22;44257;44.804;10.220;2023-06-26T04:33:46;20.20;99.90
58469;DHT22;44257;44.804;10.220;2023-06-26T04:36:17;20.30;99.90
58469;DHT22;44257;44.804;10.220;2023-06-26T04:38:43;20.30;99.90
58469;DHT22;44257;44.804;10.220;2023-06-26T04:41:09;20.30;99.90
58469;DHT22;44257;44.804;10.220;2023-06-26T04:43:35;20.40;99.90
58469;DHT22;44257;44.804;10.220;2023-06-26T04:46:02;20.40;99.90
58469;DHT22;44257;44.804;10.220;2023-06-26T04:48:29;20.50;99.90
58469;DHT22;44257;44.804;10.220;2023-06-26T04:50:56;20.50;99.90
58469;DHT22;44257;44.804;10.220;2023-06-26T04:53:23;20.60;99.90
58469;DHT22;44257;44.804;10.220;2023-06-26T04:55:52;20.70;99.90
58469;DHT22;44257;44.804;10.220;2023-06-26T04:58:18;20.70;99.90
58469;DHT22;44257;44.804;10.220;2023-06-26T05:00:44;20.80;99.90
58469;DHT22;44257;44.804;10.220;2023-06-26T05:03:12;21.00;99.90
58469;DHT22;44257;44.804;10.220;2023-06-26T05:05:38;21.30;99.90
58469;DHT22;44257;44.804;10.220;2023-06-26T05:08:33;21.80;99.90
58469;DHT22;44257;44.804;10.220;2023-06-26T05:10:59;22.60;99.90
58469;DHT22;44257;44.804;10.220;2023-06-26T05:13:25;23.30;99.90
58469;DHT22;44257;44.804;10.220;2023-06-26T05:15:52;24.20;99.90
58469;DHT22;44257;44.804;10.220;2023-06-26T05:18:18;24.90;99.90
58469;DHT22;44257;44.804;10.220;2023-06-26T05:20:45;25.70;99.90
58469;DHT22;44257;44.804;10.220;2023-06-26T05:23:12;26.30;99.90
58469;DHT22;44257;44.804;10.220;2023-06-26T05:25:38;26.80;99.70
58469;DHT22;44257;44.804;10.220;2023-06-26T05:28:05;27.20;98.70
58469;DHT22;44257;44.804;10.220;2023-06-26T05:30:31;27.70;97.60
58469;DHT22;44257;44.804;10.220;2023-06-26T05:33:00;28.10;96.70
58469;DHT22;44257;44.804;10.220;2023-06-26T05:35:29;28.50;96.30
58469;DHT22;44257;44.804;10.220;2023-06-26T05:37:56;28.90;96.10
58469;DHT22;44257;44.804;10.220;2023-06-26T05:40:25;29.30;94.70
58469;DHT22;44257;44.804;10.220;2023-06-26T05:42:51;29.60;93.70
58469;DHT22;44257;44.804;10.220;2023-06-26T05:45:17;29.80;92.70
58469;DHT22;44257;44.804;10.220;2023-06-26T05:47:43;30.00;92.00
58469;DHT22;44257;44.804;10.220;2023-06-26T05:50:10;30.40;92.50
58469;DHT22;44257;44.804;10.220;2023-06-26T05:52:36;30.60;90.70
58469;DHT22;44257;44.804;10.220;2023-06-26T05:55:02;30.90;91.90
58469;DHT22;44257;44.804;10.220;2023-06-26T05:57:29;31.20;90.80
58469;DHT22;44257;44.804;10.220;2023-06-26T05:59:56;31.30;90.80
58469;DHT22;44257;44.804;10.220;2023-06-26T06:02:22;31.40;90.20
58469;DHT22;44257;44.804;10.220;2023-06-26T06:04:48;31.40;90.10
58469;DHT22;44257;44.804;10.220;2023-06-26T06:07:14;31.30;90.00
58469;DHT22;44257;44.804;10.220;2023-06-26T06:09:40;31.30;90.50
58469;DHT22;44257;44.804;10.220;2023-06-26T06:12:07;31.30;90.10
58469;DHT22;44257;44.804;10.220;2023-06-26T06:14:34;31.40;88.30
58469;DHT22;44257;44.804;10.220;2023-06-26T06:17:00;31.40;89.70
58469;DHT22;44257;44.804;10.220;2023-06-26T06:19:26;31.60;90.40
58469;DHT22;44257;44.804;10.220;2023-06-26T06:21:52;31.70;90.20
58469;DHT22;44257;44.804;10.220;2023-06-26T06:24:19;32.10;88.70
58469;DHT22;44257;44.804;10.220;2023-06-26T06:26:44;32.30;87.50
58469;DHT22;44257;44.804;10.220;2023-06-26T06:29:10;32.30;88.60
58469;DHT22;44257;44.804;10.220;2023-06-26T06:31:39;32.40;86.10
58469;DHT22;44257;44.804;10.220;2023-06-26T06:34:05;32.50;86.90
58469;DHT22;44257;44.804;10.220;2023-06-26T06:38:57;32.60;84.90
58469;DHT22;44257;44.804;10.220;2023-06-26T06:41:23;32.50;82.60
58469;DHT22;44257;44.804;10.220;2023-06-26T06:43:49;32.40;81.70
58469;DHT22;44257;44.804;10.220;2023-06-26T06:46:15;32.40;84.50
58469;DHT22;44257;44.804;10.220;2023-06-26T06:48:41;32.30;84.00
58469;DHT22;44257;44.804;10.220;2023-06-26T06:51:06;32.30;83.70
58469;DHT22;44257;44.804;10.220;2023-06-26T06:53:32;32.10;83.50
58469;DHT22;44257;44.804;10.220;2023-06-26T06:55:58;31.90;82.40
58469;DHT22;44257;44.804;10.220;2023-06-26T06:58:24;31.50;82.90
58469;DHT22;44257;44.804;10.220;2023-06-26T07:00:50;31.10;83.50
58469;DHT22;44257;44.804;10.220;2023-06-26T07:03:18;30.60;83.20
58469;DHT22;44257;44.804;10.220;2023-06-26T07:05:44;30.20;85.10
58469;DHT22;44257;44.804;10.220;2023-06-26T07:08:10;29.70;85.50
58469;DHT22;44257;44.804;10.220;2023-06-26T07:10:36;29.20;87.90
58469;DHT22;44257;44.804;10.220;2023-06-26T07:13:02;28.90;88.70
58469;DHT22;44257;44.804;10.220;2023-06-26T07:15:28;28.50;89.40
58469;DHT22;44257;44.804;10.220;2023-06-26T07:17:54;28.30;90.40
58469;DHT22;44257;44.804;10.220;2023-06-26T07:20:20;28.10;90.40
58469;DHT22;44257;44.804;10.220;2023-06-26T07:22:46;28.00;90.30
58469;DHT22;44257;44.804;10.220;2023-06-26T07:25:12;27.90;90.80
58469;DHT22;44257;44.804;10.220;2023-06-26T07:27:39;27.90;91.10
58469;DHT22;44257;44.804;10.220;2023-06-26T07:30:06;28.00;90.60
58469;DHT22;44257;44.804;10.220;2023-06-26T07:32:34;28.00;90.20
58469;DHT22;44257;44.804;10.220;2023-06-26T07:35:00;28.00;90.00
58469;DHT22;44257;44.804;10.220;2023-06-26T07:37:26;28.00;90.50
58469;DHT22;44257;44.804;10.220;2023-06-26T07:39:52;28.00;92.10
58469;DHT22;44257;44.804;10.220;2023-06-26T07:42:18;28.20;91.00
58469;DHT22;44257;44.804;10.220;2023-06-26T07:44:44;28.30;90.40
58469;DHT22;44257;44.804;10.220;2023-06-26T07:47:10;28.30;88.80
58469;DHT22;44257;44.804;10.220;2023-06-26T07:49:36;28.40;89.50
58469;DHT22;44257;44.804;10.220;2023-06-26T07:52:03;28.50;90.10
58469;DHT22;44257;44.804;10.220;2023-06-26T07:54:28;28.60;90.40
58469;DHT22;44257;44.804;10.220;2023-06-26T07:56:56;28.70;89.70
58469;DHT22;44257;44.804;10.220;2023-06-26T07:59:23;28.90;89.00
58469;DHT22;44257;44.804;10.220;2023-06-26T08:01:53;29.00;87.80
58469;DHT22;44257;44.804;10.220;2023-06-26T08:04:21;29.00;86.50
58469;DHT22;44257;44.804;10.220;2023-06-26T08:06:51;29.10;88.40
58469;DHT22;44257;44.804;10.220;2023-06-26T08:09:18;29.20;88.10
58469;DHT22;44257;44.804;10.220;2023-06-26T08:11:44;29.40;87.30
58469;DHT22;44257;44.804;10.220;2023-06-26T08:14:10;29.60;86.50
58469;DHT22;44257;44.804;10.220;2023-06-26T08:16:40;29.80;86.70
58469;DHT22;44257;44.804;10.220;2023-06-26T08:19:06;30.10;90.00
58469;DHT22;44257;44.804;10.220;2023-06-26T08:21:31;30.40;84.90
58469;DHT22;44257;44.804;10.220;2023-06-26T08:23:57;30.50;83.30
58469;DHT22;44257;44.804;10.220;2023-06-26T08:26:23;30.60;84.20
58469;DHT22;44257;44.804;10.220;2023-06-26T08:28:49;30.60;85.90
58469;DHT22;44257;44.804;10.220;2023-06-26T08:31:16;30.90;86.50
58469;DHT22;44257;44.804;10.220;2023-06-26T08:33:42;31.00;80.00
58469;DHT22;44257;44.804;10.220;2023-06-26T08:36:08;31.00;82.60
58469;DHT22;44257;44.804;10.220;2023-06-26T08:38:34;31.20;81.90
58469;DHT22;44257;44.804;10.220;2023-06-26T08:41:00;31.30;82.30
58469;DHT22;44257;44.804;10.220;2023-06-26T08:43:26;31.20;82.20
58469;DHT22;44257;44.804;10.220;2023-06-26T08:45:53;31.20;82.60
58469;DHT22;44257;44.804;10.220;2023-06-26T08:48:21;31.30;78.60
58469;DHT22;44257;44.804;10.220;2023-06-26T08:50:49;31.30;79.00
58469;DHT22;44257;44.804;10.220;2023-06-26T08:53:33;31.40;79.30
58469;DHT22;44257;44.804;10.220;2023-06-26T08:56:02;31.60;78.00
58469;DHT22;44257;44.804;10.220;2023-06-26T08:58:28;31.70;77.00
58469;DHT22;44257;44.804;10.220;2023-06-26T09:00:54;31.80;76.90
58469;DHT22;44257;44.804;10.220;2023-06-26T09:03:21;32.00;71.60
58469;DHT22;44257;44.804;10.220;2023-06-26T09:05:48;32.00;70.70
58469;DHT22;44257;44.804;10.220;2023-06-26T09:08:14;32.00;74.20
58469;DHT22;44257;44.804;10.220;2023-06-26T09:10:40;32.20;75.60
58469;DHT22;44257;44.804;10.220;2023-06-26T09:13:06;32.40;74.70
58469;DHT22;44257;44.804;10.220;2023-06-26T09:15:41;32.60;71.90
58469;DHT22;44257;44.804;10.220;2023-06-26T09:18:08;32.80;73.20
58469;DHT22;44257;44.804;10.220;2023-06-26T09:20:34;32.80;68.90
58469;DHT22;44257;44.804;10.220;2023-06-26T09:23:00;32.60;69.50
58469;DHT22;44257;44.804;10.220;2023-06-26T09:25:27;32.50;69.60
58469;DHT22;44257;44.804;10.220;2023-06-26T09:27:53;32.50;72.60
58469;DHT22;44257;44.804;10.220;2023-06-26T09:30:20;32.60;73.20
58469;DHT22;44257;44.804;10.220;2023-06-26T09:32:46;32.90;75.70
58469;DHT22;44257;44.804;10.220;2023-06-26T09:35:12;33.20;75.30
58469;DHT22;44257;44.804;10.220;2023-06-26T09:37:38;33.40;74.40
58469;DHT22;44257;44.804;10.220;2023-06-26T09:40:04;33.60;74.00
58469;DHT22;44257;44.804;10.220;2023-06-26T09:42:33;33.80;75.10
58469;DHT22;44257;44.804;10.220;2023-06-26T09:44:59;34.00;72.50
58469;DHT22;44257;44.804;10.220;2023-06-26T09:47:25;34.00;65.80
58469;DHT22;44257;44.804;10.220;2023-06-26T09:49:51;34.00;66.80
58469;DHT22;44257;44.804;10.220;2023-06-26T09:52:18;34.00;71.40
58469;DHT22;44257;44.804;10.220;2023-06-26T09:54:45;34.00;70.90
58469;DHT22;44257;44.804;10.220;2023-06-26T09:57:13;34.10;68.60
58469;DHT22;44257;44.804;10.220;2023-06-26T09:59:41;34.20;66.80
58469;DHT22;44257;44.804;10.220;2023-06-26T10:02:07;34.30;65.60
58469;DHT22;44257;44.804;10.220;2023-06-26T10:04:35;34.20;70.20
58469;DHT22;44257;44.804;10.220;2023-06-26T10:07:10;34.30;68.00
58469;DHT22;44257;44.804;10.220;2023-06-26T10:09:42;34.40;68.70
58469;DHT22;44257;44.804;10.220;2023-06-26T10:12:30;34.40;65.40
58469;DHT22;44257;44.804;10.220;2023-06-26T10:14:57;33.90;69.40
58469;DHT22;44257;44.804;10.220;2023-06-26T10:17:28;33.60;69.10
58469;DHT22;44257;44.804;10.220;2023-06-26T10:19:58;33.50;70.10
58469;DHT22;44257;44.804;10.220;2023-06-26T10:22:29;33.60;71.00
58469;DHT22;44257;44.804;10.220;2023-06-26T10:24:58;33.80;70.40
58469;DHT22;44257;44.804;10.220;2023-06-26T10:27:28;34.00;69.20
58469;DHT22;44257;44.804;10.220;2023-06-26T10:30:02;34.10;66.30
58469;DHT22;44257;44.804;10.220;2023-06-26T10:32:29;34.20;68.20
58469;DHT22;44257;44.804;10.220;2023-06-26T10:34:56;34.20;66.50
58469;DHT22;44257;44.804;10.220;2023-06-26T10:37:44;34.30;68.70
58469;DHT22;44257;44.804;10.220;2023-06-26T10:40:11;34.40;66.60
58469;DHT22;44257;44.804;10.220;2023-06-26T10:42:38;34.40;66.00
58469;DHT22;44257;44.804;10.220;2023-06-26T10:47:40;34.70;65.20
58469;DHT22;44257;44.804;10.220;2023-06-26T10:50:27;34.80;68.40
58469;DHT22;44257;44.804;10.220;2023-06-26T10:53:10;34.90;63.10
58469;DHT22;44257;44.804;10.220;2023-06-26T10:55:40;34.90;67.50
58469;DHT22;44257;44.804;10.220;2023-06-26T10:58:29;34.80;64.30
58469;DHT22;44257;44.804;10.220;2023-06-26T11:03:42;34.90;63.10
58469;DHT22;44257;44.804;10.220;2023-06-26T11:06:15;34.90;64.00
58469;DHT22;44257;44.804;10.220;2023-06-26T11:08:48;34.70;62.60
58469;DHT22;44257;44.804;10.220;2023-06-26T11:11:15;34.60;61.10
58469;DHT22;44257;44.804;10.220;2023-06-26T11:13:42;34.40;67.60
58469;DHT22;44257;44.804;10.220;2023-06-26T11:16:08;34.40;65.00
58469;DHT22;44257;44.804;10.220;2023-06-26T11:18:34;34.60;66.60
58469;DHT22;44257;44.804;10.220;2023-06-26T11:21:10;34.70;61.80
58469;DHT22;44257;44.804;10.220;2023-06-26T11:23:40;34.90;61.40
58469;DHT22;44257;44.804;10.220;2023-06-26T11:26:17;34.90;60.50
58469;DHT22;44257;44.804;10.220;2023-06-26T11:28:48;34.90;62.00
58469;DHT22;44257;44.804;10.220;2023-06-26T11:31:27;35.00;64.10
58469;DHT22;44257;44.804;10.220;2023-06-26T11:33:56;35.20;61.50
58469;DHT22;44257;44.804;10.220;2023-06-26T11:36:29;35.30;65.40
58469;DHT22;44257;44.804;10.220;2023-06-26T11:38:56;35.30;62.50
58469;DHT22;44257;44.804;10.220;2023-06-26T11:41:29;35.50;64.30
58469;DHT22;44257;44.804;10.220;2023-06-26T11:43:55;35.60;64.20
58469;DHT22;44257;44.804;10.220;2023-06-26T11:46:22;35.70;63.20
58469;DHT22;44257;44.804;10.220;2023-06-26T11:48:48;35.70;61.90
58469;DHT22;44257;44.804;10.220;2023-06-26T11:51:18;35.80;60.90
58469;DHT22;44257;44.804;10.220;2023-06-26T11:53:45;36.00;59.40
58469;DHT22;44257;44.804;10.220;2023-06-26T11:56:12;36.00;60.00
58469;DHT22;44257;44.804;10.220;2023-06-26T12:01:27;35.90;58.50
58469;DHT22;44257;44.804;10.220;2023-06-26T12:03:59;35.90;59.80
58469;DHT22;44257;44.804;10.220;2023-06-26T12:06:26;36.00;59.80
58469;DHT22;44257;44.804;10.220;2023-06-26T12:08:52;36.00;56.50
58469;DHT22;44257;44.804;10.220;2023-06-26T12:11:20;36.00;56.90
58469;DHT22;44257;44.804;10.220;2023-06-26T12:13:46;36.00;57.60
58469;DHT22;44257;44.804;10.220;2023-06-26T12:16:14;35.90;56.20
58469;DHT22;44257;44.804;10.220;2023-06-26T12:18:40;35.90;60.30
58469;DHT22;44257;44.804;10.220;2023-06-26T12:21:06;35.90;56.80
58469;DHT22;44257;44.804;10.220;2023-06-26T12:23:33;36.00;59.30
58469;DHT22;44257;44.804;10.220;2023-06-26T12:26:16;36.00;56.70
58469;DHT22;44257;44.804;10.220;2023-06-26T12:28:44;36.00;57.50
58469;DHT22;44257;44.804;10.220;2023-06-26T12:31:15;36.00;57.50
58469;DHT22;44257;44.804;10.220;2023-06-26T12:33:43;36.10;59.00
58469;DHT22;44257;44.804;10.220;2023-06-26T12:36:13;36.10;56.00
58469;DHT22;44257;44.804;10.220;2023-06-26T12:38:42;36.10;57.50
58469;DHT22;44257;44.804;10.220;2023-06-26T12:41:13;36.10;56.60
58469;DHT22;44257;44.804;10.220;2023-06-26T12:43:42;35.80;55.10
58469;DHT22;44257;44.804;10.220;2023-06-26T12:46:08;35.60;58.70
58469;DHT22;44257;44.804;10.220;2023-06-26T12:48:42;35.50;58.40
58469;DHT22;44257;44.804;10.220;2023-06-26T12:51:17;35.70;60.20
58469;DHT22;44257;44.804;10.220;2023-06-26T12:53:43;35.80;60.50
58469;DHT22;44257;44.804;10.220;2023-06-26T12:56:10;36.00;58.60
58469;DHT22;44257;44.804;10.220;2023-06-26T12:58:37;36.10;59.10
58469;DHT22;44257;44.804;10.220;2023-06-26T13:01:06;36.20;59.10
58469;DHT22;44257;44.804;10.220;2023-06-26T13:03:42;36.50;61.10
58469;DHT22;44257;44.804;10.220;2023-06-26T13:06:08;36.70;60.00
58469;DHT22;44257;44.804;10.220;2023-06-26T13:08:34;36.70;54.50
58469;DHT22;44257;44.804;10.220;2023-06-26T13:11:00;36.60;55.70
58469;DHT22;44257;44.804;10.220;2023-06-26T13:13:26;36.50;58.90
58469;DHT22;44257;44.804;10.220;2023-06-26T13:15:52;36.50;58.10
58469;DHT22;44257;44.804;10.220;2023-06-26T13:18:18;36.50;59.80
58469;DHT22;44257;44.804;10.220;2023-06-26T13:20:44;36.50;57.50
58469;DHT22;44257;44.804;10.220;2023-06-26T13:23:10;36.50;57.20
58469;DHT22;44257;44.804;10.220;2023-06-26T13:25:35;36.50;57.80
58469;DHT22;44257;44.804;10.220;2023-06-26T13:28:01;36.60;57.90
58469;DHT22;44257;44.804;10.220;2023-06-26T13:30:27;36.70;58.90
58469;DHT22;44257;44.804;10.220;2023-06-26T13:32:53;36.90;58.70
58469;DHT22;44257;44.804;10.220;2023-06-26T13:35:18;37.00;58.60
58469;DHT22;44257;44.804;10.220;2023-06-26T13:37:44;37.00;59.70
58469;DHT22;44257;44.804;10.220;2023-06-26T13:40:11;37.10;58.50
58469;DHT22;44257;44.804;10.220;2023-06-26T13:42:37;37.00;55.30
58469;DHT22;44257;44.804;10.220;2023-06-26T13:45:03;36.90;55.60
58469;DHT22;44257;44.804;10.220;2023-06-26T13:47:30;36.80;58.90
58469;DHT22;44257;44.804;10.220;2023-06-26T13:49:56;37.00;57.80
58469;DHT22;44257;44.804;10.220;2023-06-26T13:52:22;37.00;57.20
58469;DHT22;44257;44.804;10.220;2023-06-26T13:54:48;37.00;57.10
58469;DHT22;44257;44.804;10.220;2023-06-26T13:57:14;37.00;58.20
58469;DHT22;44257;44.804;10.220;2023-06-26T13:59:39;37.00;58.90
58469;DHT22;44257;44.804;10.220;2023-06-26T14:02:06;37.00;58.10
58469;DHT22;44257;44.804;10.220;2023-06-26T14:04:34;36.90;57.70
58469;DHT22;44257;44.804;10.220;2023-06-26T14:07:00;36.90;57.20
58469;DHT22;44257;44.804;10.220;2023-06-26T14:09:26;36.90;56.50
58469;DHT22;44257;44.804;10.220;2023-06-26T14:11:53;36.90;57.50
58469;DHT22;44257;44.804;10.220;2023-06-26T14:14:19;36.80;56.40
58469;DHT22;44257;44.804;10.220;2023-06-26T14:16:45;36.70;55.50
58469;DHT22;44257;44.804;10.220;2023-06-26T14:19:11;36.30;56.80
58469;DHT22;44257;44.804;10.220;2023-06-26T14:21:40;36.20;56.40
58469;DHT22;44257;44.804;10.220;2023-06-26T14:24:06;36.10;56.50
58469;DHT22;44257;44.804;10.220;2023-06-26T14:26:32;36.10;56.70
58469;DHT22;44257;44.804;10.220;2023-06-26T14:29:00;36.30;56.20
58469;DHT22;44257;44.804;10.220;2023-06-26T14:31:26;36.30;55.60
58469;DHT22;44257;44.804;10.220;2023-06-26T14:33:52;36.10;55.80
58469;DHT22;44257;44.804;10.220;2023-06-26T14:36:18;35.70;55.70
58469;DHT22;44257;44.804;10.220;2023-06-26T14:38:45;35.50;55.90
58469;DHT22;44257;44.804;10.220;2023-06-26T14:41:11;35.50;57.20
58469;DHT22;44257;44.804;10.220;2023-06-26T14:43:38;35.70;57.10
58469;DHT22;44257;44.804;10.220;2023-06-26T14:46:04;35.70;56.20
58469;DHT22;44257;44.804;10.220;2023-06-26T14:48:31;35.60;56.30
58469;DHT22;44257;44.804;10.220;2023-06-26T14:50:57;35.40;58.30
58469;DHT22;44257;44.804;10.220;2023-06-26T14:53:23;35.30;57.10
58469;DHT22;44257;44.804;10.220;2023-06-26T14:55:49;35.40;58.60
58469;DHT22;44257;44.804;10.220;2023-06-26T14:58:14;35.60;56.10
58469;DHT22;44257;44.804;10.220;2023-06-26T15:00:40;35.70;58.00
58469;DHT22;44257;44.804;10.220;2023-06-26T15:03:06;36.00;59.20
58469;DHT22;44257;44.804;10.220;2023-06-26T15:05:32;36.30;57.40
58469;DHT22;44257;44.804;10.220;2023-06-26T15:07:58;36.40;56.80
58469;DHT22;44257;44.804;10.220;2023-06-26T15:10:23;36.60;56.40
58469;DHT22;44257;44.804;10.220;2023-06-26T15:12:49;36.60;55.20
58469;DHT22;44257;44.804;10.220;2023-06-26T15:15:15;36.60;55.70
58469;DHT22;44257;44.804;10.220;2023-06-26T15:17:43;36.60;55.80
58469;DHT22;44257;44.804;10.220;2023-06-26T15:20:09;36.60;54.40
58469;DHT22;44257;44.804;10.220;2023-06-26T15:22:34;36.60;57.00
58469;DHT22;44257;44.804;10.220;2023-06-26T15:25:00;36.70;56.20
58469;DHT22;44257;44.804;10.220;2023-06-26T15:27:26;36.70;57.90
58469;DHT22;44257;44.804;10.220;2023-06-26T15:29:52;36.70;56.90
58469;DHT22;44257;44.804;10.220;2023-06-26T15:32:18;36.80;57.40
58469;DHT22;44257;44.804;10.220;2023-06-26T15:34:45;36.70;56.00